Terminal Aerodrome Forecast
Issued by NWS

Home | Current Version | Previous Version | Text Only | Print | Product List | Glossary On
Versions: 1 2 3 4 5 6 7 8 9 10 11 12 13 14 15
075
FTUS42 KFFC 110521
TAFRYY
TAF
KRYY 110521Z 1106/1206 30006KT P6SM BKN060
     FM110900 29004KT P6SM SCT070
     FM111500 VRB04KT P6SM SCT050
     FM120000 VRB03KT P6SM BKN100
     FM120400 05003KT P6SM BKN040
      AMD NOT SKED TIL 111200=

USA.gov is the U.S. government's official web portal to all federal, state and local government web resources and services.